AUA6PS LOWW-LKPR
Flight info
| Callsign | AUA6PS |
|---|---|
| Flight time | 0h 35m |
| Altitude | 22000 |
| Route | LANUX DCT VLM |
| Aircraft | E195/M-SDE3GILORVW/S |
Departure
| Time | 2026-05-06 05:51 |
|---|---|
| Airport | Vienna International Airport (LOWW) |
Arrival
| Time | 2026-05-06 06:27 |
|---|---|
| Airport | Václav Havel Airport Prague (LKPR) |
| Time | Latitude | Longitude | Altitude | Speed | Heading |
|---|---|---|---|---|---|
| 2026-05-06 05:25 | 48.11704 | 16.56789 | 602 ft | 0 kts | 26° |
| 2026-05-06 05:41 | 48.11701 | 16.56787 | 602 ft | 1 kts | 27° |
| 2026-05-06 05:42 | 48.11688 | 16.56777 | 603 ft | 2 kts | 26° |
| 2026-05-06 05:42 | 48.11673 | 16.56767 | 603 ft | 2 kts | 26° |
| 2026-05-06 05:42 | 48.11660 | 16.56755 | 603 ft | 2 kts | 46° |
| 2026-05-06 05:42 | 48.11652 | 16.56737 | 603 ft | 2 kts | 68° |
| 2026-05-06 05:43 | 48.11649 | 16.56716 | 602 ft | 2 kts | 91° |
| 2026-05-06 05:43 | 48.11650 | 16.56698 | 602 ft | 2 kts | 109° |
| 2026-05-06 05:43 | 48.11653 | 16.56688 | 602 ft | 1 kts | 121° |
| 2026-05-06 05:43 | 48.11655 | 16.56683 | 602 ft | 0 kts | 117° |
| 2026-05-06 05:45 | 48.11654 | 16.56686 | 602 ft | 1 kts | 115° |
| 2026-05-06 05:46 | 48.11646 | 16.56714 | 602 ft | 4 kts | 115° |
| 2026-05-06 05:46 | 48.11629 | 16.56766 | 603 ft | 6 kts | 116° |
| 2026-05-06 05:46 | 48.11603 | 16.56844 | 605 ft | 9 kts | 115° |
| 2026-05-06 05:46 | 48.11566 | 16.56959 | 605 ft | 14 kts | 117° |
| 2026-05-06 05:47 | 48.11512 | 16.57117 | 605 ft | 18 kts | 104° |
| 2026-05-06 05:47 | 48.11454 | 16.57308 | 602 ft | 16 kts | 119° |
| 2026-05-06 05:47 | 48.11486 | 16.57455 | 599 ft | 19 kts | 22° |
| 2026-05-06 05:47 | 48.11618 | 16.57427 | 599 ft | 20 kts | 344° |
| 2026-05-06 05:48 | 48.11758 | 16.57366 | 596 ft | 18 kts | 343° |
| 2026-05-06 05:48 | 48.11871 | 16.57316 | 594 ft | 16 kts | 346° |
| 2026-05-06 05:48 | 48.11980 | 16.57327 | 589 ft | 18 kts | 58° |
| 2026-05-06 05:48 | 48.12008 | 16.57457 | 588 ft | 12 kts | 85° |
| 2026-05-06 05:49 | 48.12000 | 16.57571 | 588 ft | 4 kts | 105° |
| 2026-05-06 05:49 | 48.11998 | 16.57582 | 588 ft | 0 kts | 105° |
| 2026-05-06 05:49 | 48.11997 | 16.57588 | 588 ft | 0 kts | 106° |
| 2026-05-06 05:49 | 48.11993 | 16.57608 | 588 ft | 3 kts | 106° |
| 2026-05-06 05:50 | 48.11984 | 16.57658 | 589 ft | 6 kts | 106° |
| 2026-05-06 05:50 | 48.11968 | 16.57738 | 589 ft | 9 kts | 107° |
| 2026-05-06 05:50 | 48.11929 | 16.57831 | 590 ft | 12 kts | 146° |
| 2026-05-06 05:50 | 48.11834 | 16.57881 | 590 ft | 25 kts | 165° |
| 2026-05-06 05:51 | 48.11404 | 16.58064 | 592 ft | 99 kts | 165° |
| 2026-05-06 05:51 | 48.10537 | 16.58430 | 629 ft | 151 kts | 165° |
| 2026-05-06 05:51 | 48.09510 | 16.58877 | 1101 ft | 160 kts | 166° |
| 2026-05-06 05:51 | 48.08431 | 16.59306 | 1758 ft | 164 kts | 158° |
| 2026-05-06 05:52 | 48.07557 | 16.60535 | 2195 ft | 194 kts | 120° |
| 2026-05-06 05:52 | 48.07288 | 16.62655 | 2573 ft | 227 kts | 81° |
| 2026-05-06 05:52 | 48.07982 | 16.64815 | 3277 ft | 243 kts | 47° |
| 2026-05-06 05:52 | 48.09165 | 16.66586 | 4242 ft | 251 kts | 46° |
| 2026-05-06 05:53 | 48.10339 | 16.68641 | 5079 ft | 266 kts | 51° |
| 2026-05-06 05:53 | 48.11457 | 16.70847 | 6045 ft | 273 kts | 53° |
| 2026-05-06 05:53 | 48.12553 | 16.73147 | 7088 ft | 276 kts | 54° |
| 2026-05-06 05:53 | 48.13629 | 16.75474 | 8048 ft | 281 kts | 56° |
| 2026-05-06 05:54 | 48.14883 | 16.77712 | 8903 ft | 288 kts | 36° |
| 2026-05-06 05:54 | 48.16761 | 16.78768 | 9735 ft | 295 kts | 3° |
| 2026-05-06 05:54 | 48.18774 | 16.78422 | 10555 ft | 300 kts | 348° |
| 2026-05-06 05:54 | 48.20858 | 16.77837 | 11277 ft | 310 kts | 348° |
| 2026-05-06 05:55 | 48.22990 | 16.77259 | 11928 ft | 322 kts | 348° |
| 2026-05-06 05:55 | 48.25245 | 16.76658 | 12591 ft | 333 kts | 347° |
| 2026-05-06 05:55 | 48.27538 | 16.76052 | 13349 ft | 339 kts | 347° |
| 2026-05-06 05:55 | 48.29842 | 16.75443 | 14143 ft | 343 kts | 347° |
| 2026-05-06 05:56 | 48.32182 | 16.74826 | 14986 ft | 346 kts | 347° |
| 2026-05-06 05:56 | 48.34266 | 16.74135 | 15703 ft | 345 kts | 335° |
| 2026-05-06 05:56 | 48.35120 | 16.73572 | 16015 ft | 344 kts | 330° |
| 2026-05-06 05:56 | 48.37243 | 16.71942 | 16799 ft | 347 kts | 329° |
| 2026-05-06 05:57 | 48.39378 | 16.70281 | 17573 ft | 350 kts | 329° |
| 2026-05-06 05:57 | 48.41541 | 16.68594 | 18323 ft | 354 kts | 329° |
| 2026-05-06 05:57 | 48.43595 | 16.66589 | 19029 ft | 353 kts | 311° |
| 2026-05-06 05:57 | 48.44910 | 16.63562 | 19706 ft | 350 kts | 290° |
| 2026-05-06 05:58 | 48.45799 | 16.60154 | 20487 ft | 352 kts | 288° |
| 2026-05-06 05:58 | 48.46663 | 16.56728 | 21258 ft | 354 kts | 288° |
| 2026-05-06 05:58 | 48.47520 | 16.53283 | 21771 ft | 353 kts | 287° |
| 2026-05-06 05:58 | 48.48386 | 16.49781 | 21834 ft | 368 kts | 287° |
| 2026-05-06 05:59 | 48.49294 | 16.46098 | 21847 ft | 384 kts | 287° |
| 2026-05-06 05:59 | 48.50233 | 16.42287 | 21839 ft | 386 kts | 287° |
| 2026-05-06 05:59 | 48.51152 | 16.38550 | 21833 ft | 385 kts | 287° |
| 2026-05-06 05:59 | 48.52086 | 16.34744 | 21827 ft | 384 kts | 287° |
| 2026-05-06 06:00 | 48.53013 | 16.30958 | 21836 ft | 385 kts | 287° |
| 2026-05-06 06:00 | 48.53875 | 16.27433 | 21832 ft | 386 kts | 287° |
| 2026-05-06 06:00 | 48.54804 | 16.23628 | 21835 ft | 384 kts | 287° |
| 2026-05-06 06:00 | 48.55719 | 16.19876 | 21834 ft | 385 kts | 287° |
| 2026-05-06 06:01 | 48.56640 | 16.16088 | 21834 ft | 384 kts | 287° |
| 2026-05-06 06:01 | 48.57858 | 16.12516 | 21826 ft | 392 kts | 304° |
| 2026-05-06 06:01 | 48.59676 | 16.09432 | 21843 ft | 395 kts | 309° |
| 2026-05-06 06:01 | 48.61543 | 16.06386 | 21835 ft | 395 kts | 309° |
| 2026-05-06 06:02 | 48.63411 | 16.03340 | 21831 ft | 395 kts | 309° |
| 2026-05-06 06:02 | 48.65271 | 16.00306 | 21832 ft | 395 kts | 309° |
| 2026-05-06 06:02 | 48.67134 | 15.97262 | 21839 ft | 394 kts | 308° |
| 2026-05-06 06:02 | 48.68985 | 15.94235 | 21834 ft | 395 kts | 308° |
| 2026-05-06 06:03 | 48.70863 | 15.91159 | 21842 ft | 395 kts | 308° |
| 2026-05-06 06:03 | 48.72717 | 15.88120 | 21841 ft | 395 kts | 308° |
| 2026-05-06 06:03 | 48.74571 | 15.85078 | 21844 ft | 394 kts | 308° |
| 2026-05-06 06:03 | 48.76423 | 15.82035 | 21841 ft | 394 kts | 308° |
| 2026-05-06 06:04 | 48.78268 | 15.78999 | 21837 ft | 394 kts | 308° |
| 2026-05-06 06:04 | 48.80114 | 15.75959 | 21839 ft | 394 kts | 308° |
| 2026-05-06 06:04 | 48.81970 | 15.72900 | 21839 ft | 393 kts | 308° |
| 2026-05-06 06:04 | 48.83820 | 15.69844 | 21840 ft | 395 kts | 308° |
| 2026-05-06 06:05 | 48.84937 | 15.67999 | 21839 ft | 395 kts | 308° |
| 2026-05-06 06:05 | 48.86000 | 15.66242 | 21837 ft | 394 kts | 308° |
| 2026-05-06 06:05 | 48.87857 | 15.63181 | 21835 ft | 394 kts | 310° |
| 2026-05-06 06:05 | 48.90117 | 15.60768 | 21852 ft | 405 kts | 330° |
| 2026-05-06 06:06 | 48.92703 | 15.59016 | 21848 ft | 408 kts | 332° |
| 2026-05-06 06:06 | 48.95284 | 15.57303 | 21837 ft | 407 kts | 332° |
| 2026-05-06 06:06 | 48.97858 | 15.55596 | 21834 ft | 407 kts | 332° |
| 2026-05-06 06:06 | 49.00456 | 15.53871 | 21835 ft | 408 kts | 332° |
| 2026-05-06 06:07 | 49.03060 | 15.52141 | 21835 ft | 407 kts | 332° |
| 2026-05-06 06:07 | 49.05627 | 15.50433 | 21835 ft | 407 kts | 332° |
| 2026-05-06 06:07 | 49.08217 | 15.48708 | 21835 ft | 408 kts | 332° |
| 2026-05-06 06:07 | 49.10823 | 15.46971 | 21830 ft | 406 kts | 332° |
| 2026-05-06 06:08 | 49.13395 | 15.45255 | 21822 ft | 407 kts | 332° |
| 2026-05-06 06:08 | 49.15974 | 15.43531 | 21821 ft | 405 kts | 332° |
| 2026-05-06 06:08 | 49.18558 | 15.41803 | 21821 ft | 406 kts | 332° |
| 2026-05-06 06:08 | 49.21135 | 15.40076 | 21817 ft | 406 kts | 332° |
| 2026-05-06 06:09 | 49.23726 | 15.38339 | 21817 ft | 407 kts | 332° |
| 2026-05-06 06:09 | 49.26323 | 15.36595 | 21820 ft | 407 kts | 332° |
| 2026-05-06 06:09 | 49.28902 | 15.34863 | 21821 ft | 406 kts | 331° |
| 2026-05-06 06:09 | 49.31492 | 15.33120 | 21822 ft | 407 kts | 331° |
| 2026-05-06 06:10 | 49.34055 | 15.31394 | 21822 ft | 405 kts | 331° |
| 2026-05-06 06:10 | 49.36642 | 15.29650 | 21823 ft | 407 kts | 331° |
| 2026-05-06 06:10 | 49.39219 | 15.27909 | 21819 ft | 407 kts | 331° |
| 2026-05-06 06:10 | 49.41810 | 15.26158 | 21812 ft | 406 kts | 331° |
| 2026-05-06 06:11 | 49.44397 | 15.24408 | 21814 ft | 406 kts | 331° |
| 2026-05-06 06:11 | 49.46970 | 15.22664 | 21814 ft | 408 kts | 331° |
| 2026-05-06 06:11 | 49.49558 | 15.20909 | 21813 ft | 407 kts | 331° |
| 2026-05-06 06:11 | 49.52143 | 15.19153 | 21811 ft | 407 kts | 331° |
| 2026-05-06 06:12 | 49.54739 | 15.17391 | 21805 ft | 400 kts | 330° |
| 2026-05-06 06:12 | 49.57261 | 15.15674 | 21797 ft | 395 kts | 330° |
| 2026-05-06 06:12 | 49.59724 | 15.13995 | 21799 ft | 392 kts | 330° |
| 2026-05-06 06:12 | 49.62233 | 15.12283 | 21809 ft | 395 kts | 330° |
| 2026-05-06 06:13 | 49.64755 | 15.10560 | 21538 ft | 396 kts | 330° |
| 2026-05-06 06:13 | 49.67238 | 15.08863 | 21119 ft | 392 kts | 330° |
| 2026-05-06 06:13 | 49.69676 | 15.07043 | 20671 ft | 381 kts | 320° |
| 2026-05-06 06:13 | 49.71524 | 15.04322 | 20234 ft | 371 kts | 306° |
| 2026-05-06 06:14 | 49.73525 | 15.01778 | 18934 ft | 382 kts | 329° |
| 2026-05-06 06:14 | 49.75939 | 15.00299 | 17800 ft | 374 kts | 331° |
| 2026-05-06 06:14 | 49.78217 | 14.98574 | 16684 ft | 363 kts | 327° |
| 2026-05-06 06:14 | 49.80391 | 14.96733 | 15589 ft | 357 kts | 326° |
| 2026-05-06 06:15 | 49.82519 | 14.94859 | 14505 ft | 353 kts | 326° |
| 2026-05-06 06:15 | 49.84629 | 14.92972 | 13423 ft | 350 kts | 326° |
| 2026-05-06 06:15 | 49.86683 | 14.91124 | 12380 ft | 344 kts | 326° |
| 2026-05-06 06:15 | 49.88723 | 14.89283 | 11384 ft | 335 kts | 326° |
| 2026-05-06 06:16 | 49.90666 | 14.87530 | 10907 ft | 312 kts | 326° |
| 2026-05-06 06:16 | 49.92504 | 14.85864 | 10603 ft | 308 kts | 326° |
| 2026-05-06 06:16 | 49.94336 | 14.84206 | 10233 ft | 302 kts | 326° |
| 2026-05-06 06:16 | 49.96125 | 14.82583 | 9893 ft | 294 kts | 326° |
| 2026-05-06 06:17 | 49.97862 | 14.81007 | 9573 ft | 286 kts | 325° |
| 2026-05-06 06:17 | 49.99555 | 14.79469 | 9261 ft | 282 kts | 326° |
| 2026-05-06 06:17 | 50.01240 | 14.77937 | 8949 ft | 282 kts | 326° |
| 2026-05-06 06:17 | 50.02947 | 14.76383 | 8632 ft | 282 kts | 326° |
| 2026-05-06 06:18 | 50.04617 | 14.74862 | 8319 ft | 280 kts | 326° |
| 2026-05-06 06:18 | 50.06303 | 14.73326 | 8004 ft | 279 kts | 326° |
| 2026-05-06 06:18 | 50.07948 | 14.71826 | 7699 ft | 277 kts | 326° |
| 2026-05-06 06:18 | 50.09605 | 14.70313 | 7395 ft | 275 kts | 326° |
| 2026-05-06 06:19 | 50.11234 | 14.68825 | 7169 ft | 270 kts | 326° |
| 2026-05-06 06:19 | 50.12860 | 14.67348 | 7151 ft | 271 kts | 326° |
| 2026-05-06 06:19 | 50.13726 | 14.66560 | 6998 ft | 273 kts | 326° |
| 2026-05-06 06:20 | 50.14110 | 14.66210 | 6933 ft | 272 kts | 326° |
| 2026-05-06 06:20 | 50.15738 | 14.64710 | 6659 ft | 270 kts | 326° |
| 2026-05-06 06:20 | 50.17340 | 14.63262 | 6460 ft | 259 kts | 326° |
| 2026-05-06 06:20 | 50.18820 | 14.61828 | 6221 ft | 242 kts | 315° |
| 2026-05-06 06:21 | 50.19949 | 14.60018 | 5880 ft | 233 kts | 309° |
| 2026-05-06 06:21 | 50.21071 | 14.58215 | 5508 ft | 229 kts | 317° |
| 2026-05-06 06:21 | 50.22117 | 14.56488 | 5130 ft | 218 kts | 291° |
| 2026-05-06 06:21 | 50.22195 | 14.54255 | 4818 ft | 206 kts | 251° |
| 2026-05-06 06:22 | 50.21313 | 14.52578 | 4524 ft | 201 kts | 221° |
| 2026-05-06 06:22 | 50.20209 | 14.51298 | 4248 ft | 195 kts | 220° |
| 2026-05-06 06:22 | 50.19133 | 14.50075 | 4032 ft | 186 kts | 220° |
| 2026-05-06 06:22 | 50.18149 | 14.48886 | 3838 ft | 174 kts | 234° |
| 2026-05-06 06:23 | 50.17590 | 14.47305 | 3666 ft | 162 kts | 246° |
| 2026-05-06 06:23 | 50.17117 | 14.45747 | 3501 ft | 160 kts | 247° |
| 2026-05-06 06:23 | 50.16649 | 14.44191 | 3489 ft | 159 kts | 247° |
| 2026-05-06 06:23 | 50.16180 | 14.42623 | 3288 ft | 159 kts | 247° |
| 2026-05-06 06:24 | 50.15713 | 14.41063 | 3094 ft | 152 kts | 246° |
| 2026-05-06 06:24 | 50.15286 | 14.39634 | 2917 ft | 141 kts | 246° |
| 2026-05-06 06:24 | 50.14880 | 14.38279 | 2703 ft | 134 kts | 246° |
| 2026-05-06 06:24 | 50.14505 | 14.37026 | 2508 ft | 125 kts | 245° |
| 2026-05-06 06:25 | 50.14137 | 14.35798 | 2349 ft | 125 kts | 245° |
| 2026-05-06 06:25 | 50.13771 | 14.34581 | 2197 ft | 126 kts | 244° |
| 2026-05-06 06:25 | 50.13176 | 14.32616 | 1933 ft | 128 kts | 243° |
| 2026-05-06 06:26 | 50.12792 | 14.31339 | 1770 ft | 129 kts | 243° |
| 2026-05-06 06:26 | 50.12415 | 14.30073 | 1599 ft | 130 kts | 243° |
| 2026-05-06 06:26 | 50.12035 | 14.28791 | 1405 ft | 129 kts | 243° |
| 2026-05-06 06:26 | 50.11662 | 14.27538 | 1240 ft | 129 kts | 242° |
| 2026-05-06 06:27 | 50.11290 | 14.26317 | 1157 ft | 111 kts | 245° |
| 2026-05-06 06:27 | 50.11036 | 14.25468 | 1159 ft | 62 kts | 245° |
| 2026-05-06 06:27 | 50.10923 | 14.25066 | 1162 ft | 33 kts | 240° |
| 2026-05-06 06:27 | 50.10816 | 14.24742 | 1163 ft | 34 kts | 245° |
| 2026-05-06 06:28 | 50.10693 | 14.24460 | 1166 ft | 18 kts | 216° |
| 2026-05-06 06:28 | 50.10587 | 14.24342 | 1170 ft | 18 kts | 214° |
| 2026-05-06 06:28 | 50.10477 | 14.24241 | 1174 ft | 18 kts | 192° |
| 2026-05-06 06:28 | 50.10362 | 14.24307 | 1175 ft | 20 kts | 123° |
| 2026-05-06 06:29 | 50.10341 | 14.24536 | 1172 ft | 24 kts | 79° |
| 2026-05-06 06:29 | 50.10350 | 14.24614 | 1172 ft | 25 kts | 80° |
| 2026-05-06 06:29 | 50.10364 | 14.24730 | 1173 ft | 26 kts | 78° |
| 2026-05-06 06:29 | 50.10396 | 14.25016 | 1175 ft | 27 kts | 76° |
| 2026-05-06 06:30 | 50.10430 | 14.25287 | 1178 ft | 25 kts | 78° |
| 2026-05-06 06:30 | 50.10466 | 14.25564 | 1177 ft | 26 kts | 78° |
| 2026-05-06 06:30 | 50.10501 | 14.25842 | 1176 ft | 21 kts | 79° |
| 2026-05-06 06:30 | 50.10526 | 14.26042 | 1178 ft | 11 kts | 73° |
| 2026-05-06 06:31 | 50.10574 | 14.26145 | 1176 ft | 9 kts | 34° |
| 2026-05-06 06:31 | 50.10620 | 14.26194 | 1175 ft | 4 kts | 34° |
| 2026-05-06 06:31 | 50.10624 | 14.26198 | 1175 ft | 0 kts | 34° |